createdAt,value
2019-05-20T00:00:22.268Z,30.90
2019-05-20T00:01:24.315Z,29.70
2019-05-20T00:02:27.563Z,28.90
2019-05-20T00:03:22.040Z,30.30
2019-05-20T00:04:21.932Z,30.60
2019-05-20T00:05:21.956Z,30.70
2019-05-20T00:06:21.770Z,30.20
2019-05-20T00:07:21.791Z,31.90
2019-05-20T00:08:21.605Z,31.20
2019-05-20T00:09:21.529Z,31.00
2019-05-20T00:10:21.474Z,31.40
2019-05-20T00:11:21.362Z,31.90
2019-05-20T00:12:21.293Z,30.70
2019-05-20T00:13:21.207Z,31.10
2019-05-20T00:14:21.113Z,30.50
2019-05-20T00:15:21.099Z,31.60
2019-05-20T00:16:20.961Z,30.60
2019-05-20T00:17:20.942Z,30.50
2019-05-20T00:18:20.788Z,31.80
2019-05-20T00:19:20.694Z,32.20
2019-05-20T00:20:21.648Z,31.90
2019-05-20T00:21:20.539Z,32.00
2019-05-20T00:22:20.467Z,31.90
2019-05-20T00:23:20.434Z,32.20
2019-05-20T00:24:20.292Z,32.60
2019-05-20T00:25:27.207Z,33.90
2019-05-20T00:26:20.127Z,32.80
2019-05-20T00:27:20.087Z,33.30
2019-05-20T00:28:19.957Z,32.20
2019-05-20T00:29:19.875Z,32.30
2019-05-20T00:30:19.865Z,31.70
2019-05-20T00:31:19.708Z,30.80
2019-05-20T00:32:19.640Z,32.40
2019-05-20T00:33:19.646Z,31.30
2019-05-20T00:34:34.136Z,31.50
2019-05-20T00:35:19.387Z,30.60
2019-05-20T00:36:19.463Z,31.30
2019-05-20T00:37:19.221Z,31.10
2019-05-20T00:38:19.213Z,31.00
2019-05-20T00:39:19.046Z,32.00
2019-05-20T00:40:19.020Z,32.00
2019-05-20T00:41:18.886Z,31.90
2019-05-20T00:42:19.883Z,32.50
2019-05-20T00:43:18.723Z,33.00
2019-05-20T00:44:19.664Z,33.70
2019-05-20T00:45:18.556Z,32.00
2019-05-20T00:46:18.550Z,31.50
2019-05-20T00:47:18.399Z,31.70
2019-05-20T00:48:18.360Z,32.30
2019-05-20T00:49:18.230Z,31.80
2019-05-20T00:50:18.166Z,32.00
2019-05-20T00:51:18.057Z,33.00
2019-05-20T00:52:18.012Z,31.40
2019-05-20T00:53:17.902Z,30.70
2019-05-20T00:54:17.837Z,30.50
2019-05-20T00:55:17.798Z,30.10
2019-05-20T00:56:17.640Z,30.70
2019-05-20T00:57:18.557Z,31.20
2019-05-20T00:58:17.503Z,31.20
2019-05-20T00:59:17.430Z,30.60
2019-05-20T01:00:17.316Z,30.00
2019-05-20T01:01:17.319Z,29.20
2019-05-20T01:02:17.169Z,30.30
2019-05-20T01:03:17.071Z,30.10
2019-05-20T01:04:17.036Z,31.00
2019-05-20T01:05:16.898Z,31.10
2019-05-20T01:06:16.840Z,31.30
2019-05-20T01:07:16.753Z,31.80
2019-05-20T01:08:17.673Z,32.40
2019-05-20T01:09:16.576Z,32.60
2019-05-20T01:10:16.486Z,33.20
2019-05-20T01:11:16.469Z,33.40
2019-05-20T01:12:16.426Z,33.40
2019-05-20T01:13:16.236Z,33.30
2019-05-20T01:14:16.184Z,33.10
2019-05-20T01:15:16.078Z,33.70
2019-05-20T01:16:15.990Z,33.70
2019-05-20T01:17:16.027Z,33.10
2019-05-20T01:18:15.828Z,34.40
2019-05-20T01:19:15.746Z,34.60
2019-05-20T01:20:15.709Z,35.80
2019-05-20T01:21:15.605Z,35.50
2019-05-20T01:22:15.509Z,35.30
2019-05-20T01:23:15.417Z,36.00
2019-05-20T01:24:15.331Z,33.90
2019-05-20T01:25:15.251Z,33.80
2019-05-20T01:26:16.266Z,34.30
2019-05-20T01:27:15.101Z,33.50
2019-05-20T01:28:14.998Z,34.60
2019-05-20T01:29:14.952Z,34.80
2019-05-20T01:30:14.873Z,36.40
2019-05-20T01:31:14.755Z,38.30
2019-05-20T01:32:14.706Z,39.60
2019-05-20T01:33:14.689Z,41.20
2019-05-20T01:34:14.500Z,41.80
2019-05-20T01:35:14.482Z,42.00
2019-05-20T01:36:14.371Z,42.60
2019-05-20T01:37:14.269Z,44.10
2019-05-20T01:38:14.211Z,50.00
2019-05-20T01:39:14.088Z,54.50
2019-05-20T01:40:14.010Z,60.00
2019-05-20T01:41:14.013Z,60.90
2019-05-20T01:42:13.855Z,61.30
2019-05-20T01:43:13.759Z,59.80
2019-05-20T01:44:20.688Z,61.50
2019-05-20T01:45:13.607Z,63.70
2019-05-20T01:46:13.534Z,62.40
2019-05-20T01:47:13.443Z,62.30
2019-05-20T01:48:13.443Z,62.90
2019-05-20T01:49:13.264Z,63.10
2019-05-20T01:50:15.202Z,63.80
2019-05-20T01:51:13.105Z,64.30
2019-05-20T01:52:13.107Z,64.20
2019-05-20T01:53:12.961Z,62.90
2019-05-20T01:54:12.872Z,63.40
2019-05-20T01:55:12.778Z,63.10
2019-05-20T01:56:13.705Z,62.70
2019-05-20T01:57:12.623Z,63.90
2019-05-20T01:58:12.595Z,64.10
2019-05-20T01:59:12.447Z,65.10
2019-05-20T02:00:12.369Z,65.30
2019-05-20T02:01:12.306Z,65.60
2019-05-20T02:02:12.279Z,65.60
2019-05-20T02:03:12.116Z,65.80
2019-05-20T02:04:12.122Z,65.70
2019-05-20T02:05:11.954Z,67.50
2019-05-20T02:06:11.932Z,67.00
2019-05-20T02:07:11.807Z,66.90
2019-05-20T02:08:12.817Z,67.30
2019-05-20T02:09:11.628Z,68.20
2019-05-20T02:10:11.653Z,69.50
2019-05-20T02:11:11.462Z,67.50
2019-05-20T02:12:11.463Z,68.60
2019-05-20T02:13:11.312Z,67.30
2019-05-20T02:14:11.271Z,67.10
2019-05-20T02:15:11.141Z,66.50
2019-05-20T02:16:11.061Z,68.80
2019-05-20T02:17:10.993Z,67.70
2019-05-20T02:18:10.922Z,69.30
2019-05-20T02:19:10.805Z,67.20
2019-05-20T02:20:10.727Z,64.60
2019-05-20T02:21:10.642Z,65.90
2019-05-20T02:22:10.565Z,64.60
2019-05-20T02:23:10.496Z,64.70
2019-05-20T02:24:10.418Z,63.50
2019-05-20T02:25:10.314Z,64.00
2019-05-20T02:26:18.213Z,61.90
2019-05-20T02:27:10.162Z,62.80
2019-05-20T02:28:10.179Z,65.20
2019-05-20T02:29:09.986Z,63.20
2019-05-20T02:30:09.910Z,62.50
2019-05-20T02:31:09.852Z,61.50
2019-05-20T02:32:09.747Z,61.40
2019-05-20T02:33:09.677Z,60.90
2019-05-20T02:34:09.669Z,60.40
2019-05-20T02:35:09.496Z,60.70
2019-05-20T02:36:09.481Z,60.50
2019-05-20T02:37:09.337Z,58.40
2019-05-20T02:38:13.726Z,57.90
2019-05-20T02:39:09.182Z,56.70
2019-05-20T02:40:09.093Z,57.90
2019-05-20T02:41:09.102Z,56.10
2019-05-20T02:42:08.925Z,56.00
2019-05-20T02:43:08.862Z,55.50
2019-05-20T02:44:08.818Z,57.40
2019-05-20T02:45:08.690Z,55.10
2019-05-20T02:46:08.596Z,56.20
2019-05-20T02:47:08.529Z,54.20
2019-05-20T02:48:08.457Z,55.10
2019-05-20T02:49:08.440Z,54.80
2019-05-20T02:50:08.277Z,53.70
2019-05-20T02:51:08.208Z,53.90
2019-05-20T02:52:08.154Z,53.50
2019-05-20T02:53:08.043Z,52.10
2019-05-20T02:54:07.950Z,53.80
2019-05-20T02:55:07.977Z,52.90
2019-05-20T02:56:07.788Z,52.90
2019-05-20T02:57:07.703Z,53.40
2019-05-20T02:58:07.719Z,53.10
2019-05-20T02:59:07.539Z,55.60
2019-05-20T03:00:07.454Z,54.60
2019-05-20T03:01:07.392Z,51.50
2019-05-20T03:02:07.293Z,52.50
2019-05-20T03:03:07.221Z,51.10
2019-05-20T03:04:12.033Z,51.00
2019-05-20T03:05:07.048Z,50.10
2019-05-20T03:06:06.974Z,49.10
2019-05-20T03:07:06.925Z,48.60
2019-05-20T03:08:06.836Z,49.40
2019-05-20T03:09:06.729Z,48.40
2019-05-20T03:10:06.754Z,48.90
2019-05-20T03:11:06.553Z,48.20
2019-05-20T03:12:06.482Z,50.00
2019-05-20T03:13:06.488Z,50.40
2019-05-20T03:14:06.316Z,47.90
2019-05-20T03:15:06.234Z,49.20
2019-05-20T03:16:06.173Z,47.20
2019-05-20T03:17:06.074Z,48.20
2019-05-20T03:18:06.129Z,48.40
2019-05-20T03:19:05.909Z,48.40
2019-05-20T03:20:05.920Z,46.40
2019-05-20T03:21:05.742Z,49.10
2019-05-20T03:22:05.704Z,47.50
2019-05-20T03:23:05.593Z,46.60
2019-05-20T03:24:05.612Z,47.00
2019-05-20T03:25:05.431Z,45.60
2019-05-20T03:26:05.340Z,45.80
2019-05-20T03:27:12.206Z,47.00
2019-05-20T03:28:05.185Z,44.90
2019-05-20T03:29:05.095Z,47.30
2019-05-20T03:30:05.059Z,54.30
2019-05-20T03:31:04.942Z,55.50
2019-05-20T03:32:04.854Z,52.10
2019-05-20T03:33:04.894Z,49.50
2019-05-20T03:34:04.716Z,52.20
2019-05-20T03:35:04.628Z,51.60
2019-05-20T03:36:04.584Z,51.50
2019-05-20T03:37:04.444Z,51.40
2019-05-20T03:38:04.429Z,51.30
2019-05-20T03:39:04.276Z,50.20
2019-05-20T03:40:04.192Z,50.50
2019-05-20T03:41:04.247Z,49.00
2019-05-20T03:42:04.033Z,49.10
2019-05-20T03:43:03.970Z,49.50
2019-05-20T03:44:03.918Z,48.50
2019-05-20T03:45:03.801Z,49.70
2019-05-20T03:46:03.708Z,48.00
2019-05-20T03:47:03.734Z,47.50
2019-05-20T03:48:03.556Z,46.30
2019-05-20T03:49:03.466Z,45.40
2019-05-20T03:50:03.446Z,44.10
2019-05-20T03:51:03.305Z,44.00
2019-05-20T03:52:03.256Z,43.50
2019-05-20T03:53:03.154Z,42.40
2019-05-20T03:54:03.157Z,44.20
2019-05-20T03:55:02.978Z,41.80
2019-05-20T03:56:02.888Z,41.80
2019-05-20T03:57:02.873Z,41.20
2019-05-20T03:58:02.753Z,40.70
2019-05-20T03:59:02.644Z,40.30
2019-05-20T04:00:02.585Z,38.50
2019-05-20T04:01:02.477Z,39.00
2019-05-20T04:02:02.399Z,38.70
2019-05-20T04:03:02.399Z,38.90
2019-05-20T04:04:02.253Z,39.90
2019-05-20T04:05:03.347Z,37.40
2019-05-20T04:06:02.127Z,37.20
2019-05-20T04:07:02.005Z,36.40
2019-05-20T04:08:02.027Z,37.30
2019-05-20T04:09:01.848Z,37.70
2019-05-20T04:10:09.717Z,36.30
2019-05-20T04:11:01.670Z,37.40
2019-05-20T04:12:01.642Z,37.30
2019-05-20T04:13:01.504Z,37.90
2019-05-20T04:14:01.484Z,37.50
2019-05-20T04:15:01.356Z,37.70
2019-05-20T04:16:01.356Z,37.90
2019-05-20T04:17:03.215Z,37.60
2019-05-20T04:18:01.116Z,38.10
2019-05-20T04:19:01.027Z,37.80
2019-05-20T04:20:00.983Z,37.20
2019-05-20T04:21:00.852Z,37.50
2019-05-20T04:22:00.775Z,37.40
2019-05-20T04:23:00.808Z,37.30
2019-05-20T04:24:01.736Z,38.00
2019-05-20T04:25:00.522Z,36.50
2019-05-20T04:26:00.523Z,36.90
2019-05-20T04:27:00.363Z,37.50
2019-05-20T04:28:00.283Z,38.40
2019-05-20T04:29:00.259Z,37.50
2019-05-20T04:30:00.116Z,37.60
2019-05-20T04:31:00.037Z,36.80
2019-05-20T04:32:00.043Z,37.70
2019-05-20T04:32:59.869Z,37.50
2019-05-20T04:33:59.805Z,37.90
2019-05-20T04:34:59.756Z,37.10
2019-05-20T04:35:59.625Z,38.20
2019-05-20T04:36:59.574Z,37.30
2019-05-20T04:37:59.469Z,36.10
2019-05-20T04:38:59.516Z,37.40
2019-05-20T04:39:59.298Z,37.90
2019-05-20T04:41:06.248Z,36.90
2019-05-20T04:41:59.139Z,35.90
2019-05-20T04:42:59.090Z,37.00
2019-05-20T04:43:58.993Z,36.20
2019-05-20T04:44:59.006Z,36.00
2019-05-20T04:45:58.811Z,35.60
2019-05-20T04:46:59.732Z,35.60
2019-05-20T04:47:58.651Z,37.30
2019-05-20T04:48:58.654Z,37.00
2019-05-20T04:49:58.486Z,36.90
2019-05-20T04:50:58.406Z,36.80
2019-05-20T04:51:58.438Z,37.90
2019-05-20T04:52:58.237Z,36.50
2019-05-20T04:53:58.170Z,37.40
2019-05-20T04:54:58.162Z,36.50
2019-05-20T04:55:58.008Z,34.60
2019-05-20T04:56:57.914Z,35.20
2019-05-20T04:57:57.865Z,35.60
2019-05-20T04:58:57.763Z,34.70
2019-05-20T04:59:58.694Z,33.80
2019-05-20T05:00:57.628Z,33.70
2019-05-20T05:01:57.510Z,33.70
2019-05-20T05:02:57.490Z,34.40
2019-05-20T05:03:57.365Z,33.00
2019-05-20T05:04:57.271Z,32.80
2019-05-20T05:05:57.217Z,33.80
2019-05-20T05:06:57.104Z,34.10
2019-05-20T05:07:57.111Z,34.40
2019-05-20T05:08:56.951Z,35.00
2019-05-20T05:09:56.865Z,34.90
2019-05-20T05:10:56.773Z,34.70
2019-05-20T05:11:56.707Z,34.30
2019-05-20T05:12:56.616Z,34.30
2019-05-20T05:13:56.577Z,34.40
2019-05-20T05:14:56.457Z,35.40
2019-05-20T05:15:56.371Z,34.00
2019-05-20T05:16:56.364Z,36.00
2019-05-20T05:17:56.205Z,33.90
2019-05-20T05:18:56.142Z,33.50
2019-05-20T05:19:56.078Z,35.30
2019-05-20T05:20:55.966Z,34.70
2019-05-20T05:21:55.885Z,34.80
2019-05-20T05:22:55.894Z,35.00
2019-05-20T05:23:59.197Z,34.50
2019-05-20T05:24:55.637Z,35.70
2019-05-20T05:25:55.606Z,35.30
2019-05-20T05:26:55.498Z,35.10
2019-05-20T05:27:55.395Z,35.30
2019-05-20T05:28:55.352Z,35.60
2019-05-20T05:29:55.234Z,36.20
2019-05-20T05:30:55.151Z,36.00
2019-05-20T05:31:55.142Z,36.90
2019-05-20T05:32:55.005Z,37.90
2019-05-20T05:33:54.984Z,43.40
2019-05-20T05:34:54.838Z,38.60
2019-05-20T05:35:55.780Z,37.30
2019-05-20T05:36:54.685Z,38.30
2019-05-20T05:37:54.839Z,37.50
2019-05-20T05:38:54.609Z,37.20
2019-05-20T05:39:54.421Z,36.90
2019-05-20T05:40:54.337Z,36.00
2019-05-20T05:41:54.284Z,37.00
2019-05-20T05:42:54.181Z,35.80
2019-05-20T05:43:54.119Z,35.20
2019-05-20T05:44:54.018Z,33.80
2019-05-20T05:45:53.935Z,34.00
2019-05-20T05:46:53.887Z,37.10
2019-05-20T05:48:00.775Z,38.80
2019-05-20T05:48:53.701Z,37.90
2019-05-20T05:49:53.643Z,37.40
2019-05-20T05:50:53.631Z,35.20
2019-05-20T05:51:53.447Z,35.50
2019-05-20T05:52:53.366Z,35.70
2019-05-20T05:53:54.398Z,33.50
2019-05-20T05:54:53.219Z,33.50
2019-05-20T05:55:53.126Z,34.10
2019-05-20T05:56:53.154Z,34.00
2019-05-20T05:57:52.962Z,36.70
2019-05-20T05:58:52.942Z,35.70
2019-05-20T05:59:52.801Z,34.40
2019-05-20T06:00:52.783Z,34.30
2019-05-20T06:01:52.677Z,34.90
2019-05-20T06:02:52.580Z,34.20
2019-05-20T06:03:52.495Z,32.80
2019-05-20T06:04:52.401Z,33.20
2019-05-20T06:06:10.334Z,32.70
2019-05-20T06:06:52.237Z,32.90
2019-05-20T06:07:52.207Z,33.50
2019-05-20T06:08:52.091Z,32.70
2019-05-20T06:09:52.060Z,38.00
2019-05-20T06:10:51.917Z,37.90
2019-05-20T06:11:51.830Z,34.60
2019-05-20T06:12:51.844Z,33.60
2019-05-20T06:13:51.664Z,34.10
2019-05-20T06:14:51.593Z,33.70
2019-05-20T06:15:54.524Z,34.00
2019-05-20T06:16:51.420Z,34.10
2019-05-20T06:17:51.348Z,34.00
2019-05-20T06:18:52.289Z,36.40
2019-05-20T06:19:51.201Z,35.40
2019-05-20T06:20:51.095Z,33.90
2019-05-20T06:21:51.081Z,35.00
2019-05-20T06:22:50.932Z,35.50
2019-05-20T06:23:50.907Z,37.90
2019-05-20T06:24:51.321Z,38.70
2019-05-20T06:25:50.699Z,37.40
2019-05-20T06:26:50.618Z,37.90
2019-05-20T06:27:50.717Z,37.20
2019-05-20T06:28:50.453Z,37.40
2019-05-20T06:29:50.552Z,37.40
2019-05-20T06:30:50.289Z,36.40
2019-05-20T06:31:50.211Z,35.90
2019-05-20T06:32:50.334Z,34.00
2019-05-20T06:33:50.053Z,34.00
2019-05-20T06:34:49.982Z,34.80
2019-05-20T06:35:49.953Z,33.80
2019-05-20T06:36:49.808Z,34.80
2019-05-20T06:37:49.756Z,34.00
2019-05-20T06:38:49.652Z,34.70
2019-05-20T06:39:51.294Z,34.10
2019-05-20T06:40:49.480Z,34.20
2019-05-20T06:41:49.576Z,33.80
2019-05-20T06:42:49.326Z,34.10
2019-05-20T06:43:49.382Z,34.60
2019-05-20T06:44:53.112Z,33.30
2019-05-20T06:45:49.193Z,34.40
2019-05-20T06:46:48.995Z,34.00
2019-05-20T06:47:49.001Z,34.90
2019-05-20T06:48:48.827Z,33.90
2019-05-20T06:49:48.766Z,34.10
2019-05-20T06:50:48.665Z,34.90
2019-05-20T06:51:48.620Z,35.30
2019-05-20T06:52:48.529Z,35.30
2019-05-20T06:53:48.640Z,34.60
2019-05-20T06:54:48.357Z,34.70
2019-05-20T06:55:48.266Z,34.60
2019-05-20T06:56:48.515Z,35.60
2019-05-20T06:57:48.135Z,35.60
2019-05-20T06:58:48.023Z,35.30
2019-05-20T06:59:47.958Z,36.80
2019-05-20T07:00:47.862Z,34.10
2019-05-20T07:01:47.780Z,34.70
2019-05-20T07:02:47.696Z,35.60
2019-05-20T07:03:47.619Z,34.00
2019-05-20T07:04:47.545Z,33.70
2019-05-20T07:05:47.465Z,33.80
2019-05-20T07:06:47.784Z,33.10
2019-05-20T07:07:47.289Z,33.50
2019-05-20T07:08:47.219Z,32.70
2019-05-20T07:09:47.141Z,33.00
2019-05-20T07:10:47.052Z,32.20
2019-05-20T07:11:52.833Z,33.90
2019-05-20T07:12:46.889Z,32.40
2019-05-20T07:13:46.808Z,33.10
2019-05-20T07:14:46.753Z,32.40
2019-05-20T07:15:46.652Z,32.40
2019-05-20T07:16:46.572Z,31.60
2019-05-20T07:17:46.488Z,32.00
2019-05-20T07:18:46.399Z,31.90
2019-05-20T07:19:46.342Z,30.90
2019-05-20T07:20:46.251Z,31.10
2019-05-20T07:21:46.158Z,30.50
2019-05-20T07:22:55.655Z,29.00
2019-05-20T07:23:46.005Z,29.30
2019-05-20T07:24:45.931Z,29.40
2019-05-20T07:25:45.882Z,33.70
2019-05-20T07:26:45.757Z,29.50
2019-05-20T07:27:45.687Z,27.90
2019-05-20T07:28:45.620Z,29.00
2019-05-20T07:29:45.539Z,28.10
2019-05-20T07:30:45.488Z,29.30
2019-05-20T07:31:45.363Z,27.70
2019-05-20T07:32:45.276Z,27.70
2019-05-20T07:33:45.195Z,27.70
2019-05-20T07:34:45.131Z,26.70
2019-05-20T07:35:45.055Z,26.60
2019-05-20T07:37:01.488Z,26.40
2019-05-20T07:37:44.869Z,26.90
2019-05-20T07:38:44.790Z,26.10
2019-05-20T07:39:44.732Z,25.20
2019-05-20T07:40:44.629Z,26.10
2019-05-20T07:41:44.555Z,26.30
2019-05-20T07:42:44.464Z,26.30
2019-05-20T07:43:44.392Z,26.70
2019-05-20T07:44:44.336Z,26.00
2019-05-20T07:45:44.236Z,25.50
2019-05-20T07:46:44.142Z,25.00
2019-05-20T07:47:44.069Z,25.10
2019-05-20T07:48:44.001Z,25.80
2019-05-20T07:49:43.927Z,26.90
2019-05-20T07:50:43.854Z,26.30
2019-05-20T07:51:43.778Z,25.20
2019-05-20T07:52:43.661Z,25.60
2019-05-20T07:53:43.609Z,25.40
2019-05-20T07:54:43.521Z,26.40
2019-05-20T07:55:43.437Z,25.90
2019-05-20T07:56:43.343Z,26.90
2019-05-20T07:57:43.266Z,26.80
2019-05-20T07:58:43.179Z,28.10
2019-05-20T07:59:43.125Z,26.20
2019-05-20T08:00:43.041Z,27.10
2019-05-20T08:01:42.947Z,26.70
2019-05-20T08:02:42.863Z,25.00
2019-05-20T08:03:42.785Z,24.40
2019-05-20T08:04:42.733Z,25.10
2019-05-20T08:05:42.644Z,25.00
2019-05-20T08:06:42.548Z,24.00
2019-05-20T08:07:52.100Z,25.80
2019-05-20T08:08:42.384Z,24.60
2019-05-20T08:09:45.970Z,25.20
2019-05-20T08:10:42.241Z,26.40
2019-05-20T08:11:42.137Z,24.90
2019-05-20T08:12:42.047Z,24.30
2019-05-20T08:13:42.001Z,24.00
2019-05-20T08:14:41.903Z,24.50
2019-05-20T08:15:41.826Z,24.70
2019-05-20T08:16:41.731Z,24.90
2019-05-20T08:17:41.654Z,25.10
2019-05-20T08:18:41.572Z,25.50
2019-05-20T08:19:41.490Z,24.10
2019-05-20T08:20:41.447Z,23.70
2019-05-20T08:21:41.336Z,25.30
2019-05-20T08:22:41.247Z,24.80
2019-05-20T08:23:41.166Z,24.60
2019-05-20T08:24:41.097Z,25.10
2019-05-20T08:25:41.024Z,24.90
2019-05-20T08:26:40.969Z,24.50
2019-05-20T08:27:40.859Z,26.30
2019-05-20T08:28:40.779Z,24.50
2019-05-20T08:29:40.698Z,24.60
2019-05-20T08:30:40.620Z,24.00
2019-05-20T08:31:40.539Z,24.50
2019-05-20T08:32:40.442Z,23.40
2019-05-20T08:33:40.381Z,24.60
2019-05-20T08:34:40.584Z,26.40
2019-05-20T08:35:40.258Z,26.10
2019-05-20T08:36:40.123Z,25.70
2019-05-20T08:37:45.310Z,23.10
2019-05-20T08:38:39.973Z,24.20
2019-05-20T08:39:39.894Z,24.10
2019-05-20T08:40:39.820Z,24.70
2019-05-20T08:41:39.753Z,23.60
2019-05-20T08:42:39.640Z,22.80
2019-05-20T08:43:39.587Z,23.70
2019-05-20T08:44:39.485Z,23.40
2019-05-20T08:45:39.460Z,23.50
2019-05-20T08:46:39.342Z,23.40
2019-05-20T08:47:39.244Z,23.50
2019-05-20T08:48:39.179Z,23.30
2019-05-20T08:49:39.367Z,23.30
2019-05-20T08:50:39.017Z,22.70
2019-05-20T08:51:39.042Z,23.50
2019-05-20T08:52:38.838Z,23.00
2019-05-20T08:53:38.784Z,22.40
2019-05-20T08:54:40.428Z,22.90
2019-05-20T08:55:38.631Z,22.60
2019-05-20T08:56:38.553Z,23.30
2019-05-20T08:57:38.447Z,23.40
2019-05-20T08:58:38.363Z,23.60
2019-05-20T08:59:38.288Z,24.70
2019-05-20T09:00:38.219Z,26.40
2019-05-20T09:01:38.134Z,24.90
2019-05-20T09:02:38.095Z,24.50
2019-05-20T09:03:37.967Z,25.10
2019-05-20T09:04:37.958Z,24.70
2019-05-20T09:05:37.900Z,24.30
2019-05-20T09:06:37.731Z,25.20
2019-05-20T09:07:37.653Z,24.40
2019-05-20T09:08:37.561Z,24.70
2019-05-20T09:09:37.523Z,24.70
2019-05-20T09:10:39.498Z,25.20
2019-05-20T09:11:37.335Z,24.50
2019-05-20T09:12:37.253Z,24.40
2019-05-20T09:13:37.170Z,25.40
2019-05-20T09:14:40.376Z,25.10
2019-05-20T09:15:37.023Z,25.70
2019-05-20T09:16:36.926Z,25.40
2019-05-20T09:17:38.995Z,26.00
2019-05-20T09:18:36.769Z,24.70
2019-05-20T09:19:36.692Z,24.90
2019-05-20T09:20:36.616Z,24.60
2019-05-20T09:21:36.533Z,25.10
2019-05-20T09:22:36.474Z,24.90
2019-05-20T09:23:36.361Z,24.30
2019-05-20T09:24:36.422Z,24.60
2019-05-20T09:25:36.216Z,24.00
2019-05-20T09:26:36.127Z,24.40
2019-05-20T09:27:36.052Z,23.90
2019-05-20T09:28:35.971Z,24.00
2019-05-20T09:29:38.066Z,23.70
2019-05-20T09:30:35.827Z,24.70
2019-05-20T09:31:35.737Z,25.20
2019-05-20T09:32:35.646Z,25.40
2019-05-20T09:33:35.590Z,24.00
2019-05-20T09:34:35.481Z,24.50
2019-05-20T09:35:35.413Z,23.30
2019-05-20T09:36:35.336Z,23.40
2019-05-20T09:37:35.243Z,24.00
2019-05-20T09:38:37.119Z,23.60
2019-05-20T09:39:35.081Z,25.00
2019-05-20T09:40:35.016Z,24.30
2019-05-20T09:41:34.948Z,25.10
2019-05-20T09:42:34.847Z,25.60
2019-05-20T09:43:34.787Z,25.40
2019-05-20T09:44:34.715Z,25.10
2019-05-20T09:45:34.617Z,24.80
2019-05-20T09:46:34.545Z,24.70
2019-05-20T09:47:34.476Z,25.10
2019-05-20T09:48:34.378Z,25.40
2019-05-20T09:49:34.321Z,25.20
2019-05-20T09:50:34.202Z,25.60
2019-05-20T09:51:34.142Z,26.00
2019-05-20T09:52:34.049Z,25.70
2019-05-20T09:53:33.966Z,24.40
2019-05-20T09:54:33.879Z,24.70
2019-05-20T09:55:33.838Z,25.00
2019-05-20T09:56:33.731Z,26.60
2019-05-20T09:57:33.636Z,25.40
2019-05-20T09:58:33.573Z,26.20
2019-05-20T09:59:42.723Z,26.90
2019-05-20T10:00:33.412Z,27.20
2019-05-20T10:01:33.336Z,27.00
2019-05-20T10:02:37.799Z,27.70
2019-05-20T10:03:33.161Z,27.40
2019-05-20T10:04:33.089Z,27.00
2019-05-20T10:05:32.997Z,26.70
2019-05-20T10:06:32.945Z,26.30
2019-05-20T10:07:32.839Z,27.30
2019-05-20T10:08:37.992Z,27.20
2019-05-20T10:09:32.678Z,26.60
2019-05-20T10:10:32.602Z,28.90
2019-05-20T10:11:32.537Z,29.50
2019-05-20T10:12:45.361Z,29.00
2019-05-20T10:13:32.365Z,29.50
2019-05-20T10:14:32.286Z,29.00
2019-05-20T10:15:32.199Z,29.00
2019-05-20T10:16:32.166Z,29.50
2019-05-20T10:17:32.051Z,30.00
2019-05-20T10:18:37.281Z,28.90
2019-05-20T10:19:31.882Z,28.90
2019-05-20T10:20:31.812Z,29.80
2019-05-20T10:21:31.732Z,30.20
2019-05-20T10:22:31.641Z,28.60
2019-05-20T10:23:31.569Z,29.80
2019-05-20T10:24:31.482Z,28.80
2019-05-20T10:25:31.400Z,30.50
2019-05-20T10:26:31.334Z,30.90
2019-05-20T10:27:31.249Z,31.20
2019-05-20T10:28:31.182Z,30.60
2019-05-20T10:29:31.078Z,31.10
2019-05-20T10:30:30.995Z,30.70
2019-05-20T10:31:30.975Z,32.40
2019-05-20T10:32:30.844Z,32.00
2019-05-20T10:33:30.758Z,32.30
2019-05-20T10:34:30.688Z,31.20
2019-05-20T10:35:30.596Z,31.80
2019-05-20T10:36:30.531Z,32.20
2019-05-20T10:37:30.457Z,34.60
2019-05-20T10:38:30.365Z,33.90
2019-05-20T10:39:30.290Z,33.10
2019-05-20T10:40:30.216Z,33.80
2019-05-20T10:41:30.141Z,33.60
2019-05-20T10:42:30.040Z,33.50
2019-05-20T10:43:29.963Z,32.60
2019-05-20T10:44:29.897Z,33.70
2019-05-20T10:45:29.870Z,34.10
2019-05-20T10:46:29.737Z,34.00
2019-05-20T10:47:29.646Z,34.00
2019-05-20T10:48:29.565Z,33.60
2019-05-20T10:49:29.485Z,33.20
2019-05-20T10:50:29.399Z,35.00
2019-05-20T10:51:29.347Z,34.40
2019-05-20T10:52:29.239Z,34.00
2019-05-20T10:53:29.229Z,34.60
2019-05-20T10:54:29.094Z,33.50
2019-05-20T10:55:29.000Z,32.70
2019-05-20T10:56:28.940Z,33.00
2019-05-20T10:57:28.851Z,33.80
2019-05-20T10:58:28.762Z,33.50
2019-05-20T10:59:28.683Z,34.50
2019-05-20T11:00:28.611Z,33.30
2019-05-20T11:01:28.534Z,32.90
2019-05-20T11:02:31.144Z,33.00
2019-05-20T11:03:28.375Z,34.70
2019-05-20T11:04:28.280Z,34.00
2019-05-20T11:05:28.202Z,32.70
2019-05-20T11:06:28.145Z,33.80
2019-05-20T11:07:28.040Z,33.10
2019-05-20T11:08:27.961Z,34.00
2019-05-20T11:09:28.294Z,34.00
2019-05-20T11:10:27.819Z,35.10
2019-05-20T11:11:27.756Z,34.30
2019-05-20T11:12:27.706Z,33.60
2019-05-20T11:13:27.569Z,33.20
2019-05-20T11:14:27.495Z,33.20
2019-05-20T11:15:27.452Z,33.60
2019-05-20T11:16:27.656Z,32.40
2019-05-20T11:17:27.254Z,32.50
2019-05-20T11:18:27.167Z,32.90
2019-05-20T11:19:27.158Z,31.20
2019-05-20T11:20:27.004Z,32.60
2019-05-20T11:21:26.930Z,33.70
2019-05-20T11:22:26.856Z,34.60
2019-05-20T11:23:26.771Z,35.60
2019-05-20T11:24:26.690Z,36.80
2019-05-20T11:25:26.617Z,37.60
2019-05-20T11:26:26.521Z,37.10
2019-05-20T11:27:26.474Z,37.10
2019-05-20T11:28:26.368Z,37.80
2019-05-20T11:29:26.295Z,37.40
2019-05-20T11:30:26.222Z,36.40
2019-05-20T11:31:26.133Z,37.90
2019-05-20T11:32:26.060Z,37.00
2019-05-20T11:33:25.964Z,38.10
2019-05-20T11:34:25.901Z,36.70
2019-05-20T11:35:25.803Z,36.40
2019-05-20T11:36:25.725Z,36.00
2019-05-20T11:37:25.674Z,37.30
2019-05-20T11:38:25.563Z,35.70
2019-05-20T11:39:33.278Z,35.60
2019-05-20T11:40:25.407Z,35.20
2019-05-20T11:41:51.179Z,35.10
2019-05-20T11:42:25.268Z,36.30
2019-05-20T11:43:25.169Z,34.40
2019-05-20T11:44:25.090Z,35.50
2019-05-20T11:45:25.010Z,34.70
2019-05-20T11:46:25.013Z,35.30
2019-05-20T11:47:24.861Z,35.00
2019-05-20T11:48:24.777Z,36.30
2019-05-20T11:49:28.836Z,36.00
2019-05-20T11:50:24.623Z,36.10
2019-05-20T11:51:24.523Z,36.80
2019-05-20T11:52:24.488Z,35.70
2019-05-20T11:53:24.364Z,35.50
2019-05-20T11:54:24.288Z,34.30
2019-05-20T11:55:24.216Z,34.70
2019-05-20T11:56:24.130Z,35.40
2019-05-20T11:57:24.070Z,35.00
2019-05-20T11:58:23.973Z,35.30
2019-05-20T11:59:23.885Z,34.90
2019-05-20T12:00:23.942Z,35.10
2019-05-20T12:01:23.722Z,34.10
2019-05-20T12:02:23.671Z,33.80
2019-05-20T12:03:23.576Z,34.10
2019-05-20T12:04:23.482Z,33.10
2019-05-20T12:05:23.432Z,33.40
2019-05-20T12:06:23.386Z,32.80
2019-05-20T12:07:23.263Z,33.60
2019-05-20T12:08:23.171Z,33.80
2019-05-20T12:09:23.088Z,33.60
2019-05-20T12:10:23.009Z,33.50
2019-05-20T12:11:22.934Z,34.70
2019-05-20T12:12:22.864Z,34.10
2019-05-20T12:13:22.762Z,35.10
2019-05-20T12:14:22.687Z,35.00
2019-05-20T12:15:22.614Z,34.20
2019-05-20T12:16:22.528Z,34.30
2019-05-20T12:17:22.461Z,33.10
2019-05-20T12:18:22.358Z,33.30
2019-05-20T12:19:22.298Z,34.70
2019-05-20T12:20:22.212Z,33.30
2019-05-20T12:21:22.135Z,34.00
2019-05-20T12:22:22.063Z,34.40
2019-05-20T12:23:21.976Z,34.20
2019-05-20T12:24:21.920Z,35.80
2019-05-20T12:25:21.825Z,34.90
2019-05-20T12:26:22.761Z,35.60
2019-05-20T12:27:21.664Z,37.20
2019-05-20T12:28:21.563Z,36.60
2019-05-20T12:29:21.501Z,36.10
2019-05-20T12:30:21.475Z,35.90
2019-05-20T12:31:21.328Z,36.50
2019-05-20T12:32:21.262Z,35.30
2019-05-20T12:33:21.191Z,35.00
2019-05-20T12:34:21.127Z,33.50
2019-05-20T12:35:21.012Z,35.10
2019-05-20T12:36:20.938Z,34.40
2019-05-20T12:37:20.856Z,35.40
2019-05-20T12:38:20.775Z,34.60
2019-05-20T12:39:20.708Z,35.30
2019-05-20T12:40:20.603Z,35.50
2019-05-20T12:41:20.528Z,34.50
2019-05-20T12:42:20.475Z,34.80
2019-05-20T12:43:20.365Z,34.30
2019-05-20T12:44:20.299Z,34.10
2019-05-20T12:45:20.213Z,32.50
2019-05-20T12:46:20.134Z,34.00
2019-05-20T12:47:20.065Z,34.50
2019-05-20T12:48:19.971Z,33.60
2019-05-20T12:49:19.970Z,34.50
2019-05-20T12:50:19.805Z,34.10
2019-05-20T12:51:19.735Z,34.20